Flight Track Log - Related Links

Times and Time Zones

All times are in EDT time to prevent confusion due to time zone crossing. See the TRS398 flight status page for this flight to view local times or setup timezone preferences in your user account.


Time Position Orientation Groundspeed Altitude Reporting Facility
EDT Latitude Longitude Course Direction KTS MPH feet Rate Location/Type
Thu 02:35:48 PM 28.4000 -81.3000 204° Southwest 163 188 1,000  Level Orlando TRACON
Thu 02:36:24 PM 28.3667 -81.3167 204° Southwest 201 231 2,000 1,375 Climbing Orlando TRACON
Thu 02:37:24 PM 28.3167 -81.3500 210° Southwest 250 288 3,200 1,670 Climbing Orlando TRACON
Thu 02:38:19 PM 28.3167 -81.4167 270° West 272 313 5,200 2,182 Climbing Orlando TRACON
Thu 02:39:25 PM 28.4000 -81.4500 341° North 296 341 7,600 2,169 Climbing Orlando TRACON
Thu 02:41:16 PM 28.5514 -81.5006 344° North 317 365 11,600 1,789 Climbing Jacksonville Center
Thu 02:42:16 PM 28.6497 -81.5253 348° North 335 386 12,700 1,600 Climbing Jacksonville Center
Thu 02:43:16 PM 28.7586 -81.5497 349° North 369 425 14,800 1,950 Climbing Jacksonville Center
Thu 02:44:16 PM 28.8672 -81.5744 349° North 390 449 16,600 1,700 Climbing Jacksonville Center
Thu 02:45:16 PM 28.9803 -81.6014 348° North 395 455 18,200 1,650 Climbing Jacksonville Center
Thu 02:46:16 PM 29.0933 -81.6261 349° North 400 460 19,900 1,550 Climbing Jacksonville Center
Thu 02:47:16 PM 29.2106 -81.6556 348° North 416 479 21,300 1,450 Climbing Jacksonville Center
Thu 02:48:16 PM 29.3317 -81.6847 348° North 422 486 22,800 1,350 Climbing Jacksonville Center
Thu 02:49:16 PM 29.4511 -81.7119 349° North 433 498 24,000 1,200 Climbing Jacksonville Center
Thu 02:50:16 PM 29.5744 -81.7439 347° North 438 504 25,200 1,050 Climbing Jacksonville Center
Thu 02:51:16 PM 29.7022 -81.7736 349° North 448 516 26,100 1,000 Climbing Jacksonville Center
Thu 02:52:16 PM 29.8317 -81.8033 349° North 459 528 27,200 1,300 Climbing Jacksonville Center
Thu 02:53:16 PM 29.9594 -81.8331 349° North 465 535 28,700 1,350 Climbing Jacksonville Center
Thu 02:54:16 PM 30.0722 -81.8556 350° North 465 535 29,900 1,200 Climbing Jacksonville Center
Thu 02:55:16 PM 30.1978 -81.8881 347° North 465 535 31,100 1,200 Climbing Jacksonville Center
Thu 02:56:16 PM 30.3131 -81.9300 343° North 453 521 32,300 950 Climbing Jacksonville Center
Thu 02:57:16 PM 30.4303 -81.9794 340° North 443 510 33,000 350 Climbing Jacksonville Center
Thu 02:58:16 PM 30.5433 -82.0292 339° North 438 504 33,000  Level Jacksonville Center
Thu 02:59:16 PM 30.6606 -82.0836 338° Northwest 438 504 33,000  Level Jacksonville Center
Thu 03:00:16 PM 30.7758 -82.1358 339° North 438 504 33,000  Level Jacksonville Center
Thu 03:01:16 PM 30.8908 -82.1833 340° North 438 504 33,000  Level Jacksonville Center
Thu 03:02:16 PM 31.0061 -82.2333 340° North 438 504 33,000  Level Jacksonville Center
Thu 03:03:16 PM 31.1211 -82.2833 340° North 433 498 33,000  Level Jacksonville Center
Thu 03:04:16 PM 31.2383 -82.3314 341° North 433 498 33,000  Level Jacksonville Center
Thu 03:05:16 PM 31.3533 -82.3842 339° North 433 498 33,000  Level Jacksonville Center
Thu 03:07:32 PM 31.6181 -82.4975 340° North 437 503 33,000  Level Atlanta Center
Thu 03:08:32 PM 31.7333 -82.5469 340° North 437 503 33,000  Level Atlanta Center
Thu 03:09:32 PM 31.8489 -82.5964 340° North 432 497 33,000  Level Atlanta Center
Thu 03:10:32 PM 31.9642 -82.6483 339° North 432 497 33,000  Level Atlanta Center
Thu 03:11:32 PM 32.0817 -82.7006 339° North 437 503 33,000  Level Atlanta Center
Thu 03:12:32 PM 32.2117 -82.7550 340° North 442 509 33,000  Level Atlanta Center
Thu 03:13:32 PM 32.3269 -82.8097 338° Northwest 442 509 33,000  Level Atlanta Center
Thu 03:14:32 PM 32.4444 -82.8600 340° North 442 509 33,000  Level Atlanta Center
Thu 03:15:32 PM 32.5450 -82.9078 338° Northwest 442 509 33,000  Level Atlanta Center
Thu 03:16:32 PM 32.6728 -82.9653 339° North 437 503 33,000  Level Atlanta Center
Thu 03:17:32 PM 32.7650 -83.0064 339° North 437 503 33,000  Level Atlanta Center
Thu 03:18:32 PM 32.8867 -83.0617 339° North 431 496 33,000  Level Atlanta Center
Thu 03:19:32 PM 33.0017 -83.1150 339° North 436 502 33,000  Level Atlanta Center
Thu 03:20:32 PM 33.1189 -83.1633 341° North 441 507 33,000  Level Atlanta Center
Thu 03:21:32 PM 33.2300 -83.2167 338° Northwest 441 507 33,000 350 Level Atlanta Center
Thu 03:22:32 PM 33.3450 -83.2656 340° North 435 501 33,700 500 Climbing Atlanta Center
Thu 03:23:32 PM 33.4539 -83.3167 339° North 430 495 34,000 150 Climbing Atlanta Center
Thu 03:24:32 PM 33.5650 -83.3683 339° North 430 495 34,000  Level Atlanta Center
Thu 03:25:32 PM 33.6758 -83.4197 339° North 430 495 34,000  Level Atlanta Center
Thu 03:26:32 PM 33.7992 -83.4739 340° North 430 495 34,000  Level Atlanta Center
Thu 03:27:32 PM 33.9081 -83.5231 339° North 430 495 34,000  Level Atlanta Center
Thu 03:28:32 PM 34.0189 -83.5725 340° North 430 495 34,000  Level Atlanta Center
Thu 03:29:32 PM 34.1253 -83.6247 338° Northwest 421 484 34,000  Level Atlanta Center
Thu 03:30:32 PM 34.2361 -83.6769 339° North 421 484 34,000  Level Atlanta Center
Thu 03:31:32 PM 34.3447 -83.7269 339° North 415 478 34,000  Level Atlanta Center
Thu 03:32:32 PM 34.4536 -83.7769 339° North 415 478 34,000  Level Atlanta Center
Thu 03:33:32 PM 34.5642 -83.8294 339° North 415 478 34,000  Level Atlanta Center
Thu 03:34:32 PM 34.6708 -83.8822 338° Northwest 415 478 34,000  Level Atlanta Center
Thu 03:35:32 PM 34.7667 -83.9300 338° Northwest 410 472 34,000  Level Atlanta Center
Thu 03:36:32 PM 34.8753 -83.9806 339° North 415 478 34,000  Level Atlanta Center
Thu 03:37:32 PM 34.9817 -84.0311 339° North 415 478 34,000  Level Atlanta Center
Thu 03:38:32 PM 35.0922 -84.0844 338° Northwest 415 478 34,000  Level Atlanta Center
Thu 03:39:32 PM 35.2008 -84.1353 339° North 415 478 34,000  Level Atlanta Center
Thu 03:40:32 PM 35.3092 -84.1864 339° North 415 478 34,000  Level Atlanta Center
Thu 03:41:32 PM 35.4197 -84.2425 338° Northwest 415 478 34,000  Level Atlanta Center
Thu 03:42:32 PM 35.5303 -84.2939 339° North 415 478 34,000  Level Atlanta Center
Thu 03:43:32 PM 35.6428 -84.3481 339° North 421 484 34,000  Level Atlanta Center
Thu 03:44:32 PM 35.7553 -84.3994 340° North 421 484 34,000  Level Atlanta Center
Thu 03:45:32 PM 35.8656 -84.4539 338° Northwest 421 484 34,000  Level Atlanta Center
Thu 03:46:32 PM 35.9886 -84.5136 339° North 427 491 34,000  Level Atlanta Center
Thu 03:47:32 PM 36.1008 -84.5656 339° North 427 491 34,000  Level Atlanta Center
Thu 03:49:15 PM 36.2811 -84.6517 339° North 433 498 34,000  Level Indianapolis Center
Thu 03:50:17 PM 36.3919 -84.7103 337° Northwest 433 498 34,000  Level Indianapolis Center
Thu 03:51:19 PM 36.5247 -84.7769 338° Northwest 431 496 34,000  Level Indianapolis Center
Thu 03:52:21 PM 36.6369 -84.8339 338° Northwest 435 501 34,000  Level Indianapolis Center
Thu 03:53:22 PM 36.7494 -84.8900 338° Northwest 436 502 34,000  Level Indianapolis Center
Thu 03:54:24 PM 36.8606 -84.9489 337° Northwest 438 504 34,000  Level Indianapolis Center
Thu 03:55:26 PM 36.9719 -85.0100 336° Northwest 437 503 34,000  Level Indianapolis Center
Thu 03:56:28 PM 37.0833 -85.0689 337° Northwest 434 499 34,000  Level Indianapolis Center
Thu 03:57:30 PM 37.2117 -85.1411 336° Northwest 432 497 34,000  Level Indianapolis Center
Thu 03:58:32 PM 37.3256 -85.2011 337° Northwest 439 505 34,000  Level Indianapolis Center
Thu 03:59:34 PM 37.4378 -85.2642 336° Northwest 440 506 34,000  Level Indianapolis Center
Thu 04:00:36 PM 37.5503 -85.3264 336° Northwest 441 507 34,000  Level Indianapolis Center
Thu 04:01:38 PM 37.6628 -85.3919 335° Northwest 442 509 34,000  Level Indianapolis Center
Thu 04:02:39 PM 37.7761 -85.4525 337° Northwest 445 512 34,000  Level Indianapolis Center
Thu 04:03:41 PM 37.8900 -85.5139 337° Northwest 453 521 34,000  Level Indianapolis Center
Thu 04:04:43 PM 38.0247 -85.5903 336° Northwest 443 510 34,000  Level Indianapolis Center
Thu 04:05:45 PM 38.1383 -85.6550 336° Northwest 446 513 34,000  Level Indianapolis Center
Thu 04:06:46 PM 38.2533 -85.7186 337° Northwest 448 516 34,000  Level Indianapolis Center
Thu 04:07:48 PM 38.3686 -85.7842 336° Northwest 453 521 34,000  Level Indianapolis Center
Thu 04:08:50 PM 38.4833 -85.8506 336° Northwest 454 522 34,000  Level Indianapolis Center
Thu 04:09:52 PM 38.5975 -85.9144 336° Northwest 451 519 34,000  Level Indianapolis Center
Thu 04:10:53 PM 38.7125 -85.9800 336° Northwest 453 521 34,000  Level Indianapolis Center
Thu 04:11:55 PM 38.8261 -86.0464 336° Northwest 450 518 34,000  Level Indianapolis Center
Thu 04:12:57 PM 38.9614 -86.1250 336° Northwest 452 520 34,000  Level Indianapolis Center
Thu 04:13:59 PM 39.0739 -86.1886 336° Northwest 445 512 34,000  Level Indianapolis Center
Thu 04:15:00 PM 39.1878 -86.2558 335° Northwest 448 516 34,000  Level Indianapolis Center
Thu 04:16:02 PM 39.3011 -86.3214 336° Northwest 446 513 34,000  Level Indianapolis Center
Thu 04:17:04 PM 39.4153 -86.3878 336° Northwest 448 516 34,000  Level Indianapolis Center
Thu 04:18:06 PM 39.5294 -86.4550 336° Northwest 447 514 34,000  Level Indianapolis Center
Thu 04:19:08 PM 39.6425 -86.5219 335° Northwest 442 509 34,000  Level Indianapolis Center
Thu 04:20:10 PM 39.7550 -86.5886 336° Northwest 439 505 34,000  Level Indianapolis Center
Thu 04:21:11 PM 39.8900 -86.6686 336° Northwest 439 505 34,000  Level Indianapolis Center
Thu 04:22:13 PM 40.0008 -86.7331 336° Northwest 436 502 34,000  Level Indianapolis Center
Thu 04:23:15 PM 40.1211 -86.7594 350° North 437 503 34,000  Level Indianapolis Center
Thu 04:23:59 PM 40.1950 -86.7794 348° North 442 509 34,000  Level Chicago Center
Thu 04:25:01 PM 40.3397 -86.8086 351° North 438 504 34,000  Level Chicago Center
Thu 04:26:03 PM 40.4603 -86.8367 350° North 440 506 34,000 -145 Level Chicago Center
Thu 04:27:05 PM 40.5833 -86.8600 352° North 445 512 33,700 -484 Descending Chicago Center
Thu 04:28:07 PM 40.7036 -86.8864 351° North 441 507 33,000 -339 Descending Chicago Center
Thu 04:29:09 PM 40.8417 -86.9178 350° North 437 503 33,000  Level Chicago Center
Thu 04:30:11 PM 40.9558 -86.9458 349° North 424 488 33,000 -145 Level Chicago Center
Thu 04:31:13 PM 41.0717 -86.9725 350° North 424 488 32,700 -968 Descending Chicago Center
Thu 04:32:15 PM 41.1886 -86.9983 351° North 428 493 31,000 -2,352 Descending Chicago Center
Thu 04:33:18 PM 41.3042 -87.0253 350° North 426 490 27,800 -3,312 Descending Chicago Center
Thu 04:34:20 PM 41.4406 -87.0569 350° North 419 482 24,100 -1,839 Descending Chicago Center
Thu 04:35:22 PM 41.5550 -87.0825 351° North 421 484 24,000 -48 Descending Chicago Center
Thu 04:36:24 PM 41.6708 -87.1089 350° North 425 489 24,000 -97 Level Chicago Center
Thu 04:37:26 PM 41.7844 -87.1367 350° North 421 484 23,800 -968 Descending Chicago Center
Thu 04:38:28 PM 41.9186 -87.1672 350° North 412 474 22,000 -1,584 Descending Chicago Center
Thu 04:39:31 PM 42.0283 -87.1925 350° North 405 466 20,500 -1,355 Descending Chicago Center
Thu 04:40:32 PM 42.1369 -87.2153 351° North 400 460 19,200 -1,415 Descending Chicago Center
Thu 04:41:34 PM 42.2447 -87.2419 350° North 397 457 17,600 -1,597 Descending Chicago Center
Thu 04:42:36 PM 42.3614 -87.2683 351° North 387 445 15,900 -2,371 Descending Chicago Center
Thu 04:43:38 PM 42.4658 -87.2922 350° North 381 438 12,700 -2,855 Descending Chicago Center
Thu 04:44:40 PM 42.5658 -87.3164 350° North 368 423 10,000 -1,306 Descending Chicago Center
Thu 04:45:42 PM 42.6628 -87.3406 350° North 357 411 10,000  Level Chicago Center
Thu 04:46:45 PM 42.7322 -87.4436 313° West 352 405 10,000  Level Chicago Center
Thu 04:47:47 PM 42.7775 -87.5611 298° West 350 403 10,000  Level Chicago Center
Thu 04:48:49 PM 42.8206 -87.6764 297° West 341 392 10,000 -871 Level Chicago Center
Thu 04:49:51 PM 42.8628 -87.7833 298° West 276 318 8,200 -1,452 Descending Chicago Center
Thu 04:50:53 PM 42.8608 -87.8847 269° West 284 327 7,000 -1,355 Descending Chicago Center
Thu 04:51:55 PM 42.8436 -87.9836 257° West 270 311 5,400 -1,935 Descending Chicago Center
Thu 04:52:57 PM 42.8453 -88.0786 271° West 267 307 3,000 -1,306 Descending Chicago Center
Thu 04:53:59 PM 42.9006 -88.0533 19° North 246 283 2,700 -462 Descending Chicago Center
Thu 04:54:15 PM 42.9167 -88.0333 42° Northeast 174 200 2,400 -789 Descending KMKE
Thu 04:55:15 PM 42.9167 -87.9833 90° East 119 137 1,700 -714 Descending KMKE
Thu 04:56:21 PM 42.9333 -87.9333 66° East 127 146 900 -727 Descending KMKE

Login

Don't have an account? Register now (free) for customized features, flight alerts, and more!